createdAt,value
2018-12-31T00:01:06.492Z,91
2018-12-31T00:06:33.042Z,91
2018-12-31T00:11:59.802Z,91
2018-12-31T00:17:27.489Z,91
2018-12-31T00:22:55.170Z,91
2018-12-31T00:28:21.869Z,91
2018-12-31T00:33:49.549Z,91
2018-12-31T00:39:16.304Z,91
2018-12-31T00:44:42.970Z,91
2018-12-31T00:50:10.705Z,91
2018-12-31T00:55:37.404Z,91
2018-12-31T01:01:04.095Z,91
2018-12-31T01:06:31.770Z,91
2018-12-31T01:11:58.478Z,92
2018-12-31T01:22:53.896Z,92
2018-12-31T01:28:21.584Z,91
2018-12-31T01:33:49.274Z,91
2018-12-31T01:39:17.129Z,91
2018-12-31T01:44:43.797Z,91
2018-12-31T01:50:10.445Z,91
2018-12-31T01:55:38.142Z,92
2018-12-31T02:01:05.779Z,92
2018-12-31T02:06:32.513Z,92
2018-12-31T02:11:59.197Z,92
2018-12-31T02:17:26.938Z,92
2018-12-31T02:22:53.622Z,92
2018-12-31T02:28:21.344Z,92
2018-12-31T02:33:48.092Z,92
2018-12-31T02:39:14.774Z,92
2018-12-31T02:44:41.517Z,92
2018-12-31T02:50:09.247Z,92
2018-12-31T02:55:37.108Z,92
2018-12-31T03:01:03.735Z,92
2018-12-31T03:06:30.484Z,92
2018-12-31T03:11:58.311Z,92
2018-12-31T03:17:26.177Z,92
2018-12-31T03:22:53.698Z,92
2018-12-31T03:28:20.385Z,92
2018-12-31T03:33:47.066Z,92
2018-12-31T03:39:14.851Z,92
2018-12-31T03:44:42.622Z,92
2018-12-31T03:50:10.320Z,92
2018-12-31T03:55:37.124Z,92
2018-12-31T04:01:04.796Z,92
2018-12-31T04:06:31.917Z,92
2018-12-31T04:11:59.330Z,92
2018-12-31T04:17:27.087Z,92
2018-12-31T04:22:55.102Z,92
2018-12-31T04:28:22.544Z,93
2018-12-31T04:33:49.307Z,93
2018-12-31T04:39:16.208Z,93
2018-12-31T04:44:42.898Z,93
2018-12-31T04:50:09.575Z,93
2018-12-31T04:55:43.953Z,93
2018-12-31T05:01:03.199Z,93
2018-12-31T05:06:29.984Z,93
2018-12-31T05:11:57.691Z,93
2018-12-31T05:17:24.466Z,93
2018-12-31T05:22:51.321Z,93
2018-12-31T05:28:18.137Z,93
2018-12-31T05:33:44.783Z,93
2018-12-31T05:39:12.616Z,93
2018-12-31T05:44:39.349Z,93
2018-12-31T05:50:07.234Z,93
2018-12-31T05:55:34.229Z,93
2018-12-31T06:01:01.786Z,93
2018-12-31T06:06:29.553Z,93
2018-12-31T06:11:56.425Z,94
2018-12-31T06:17:23.205Z,94
2018-12-31T06:22:49.964Z,94
2018-12-31T06:28:17.811Z,94
2018-12-31T06:33:44.628Z,94
2018-12-31T06:39:11.420Z,94
2018-12-31T06:44:38.327Z,94
2018-12-31T06:50:06.048Z,94
2018-12-31T06:55:33.873Z,94
2018-12-31T07:01:01.685Z,94
2018-12-31T07:06:29.473Z,94
2018-12-31T07:11:57.301Z,94
2018-12-31T07:17:24.237Z,95
2018-12-31T07:22:52.040Z,95
2018-12-31T07:28:19.809Z,95
2018-12-31T07:33:46.657Z,95
2018-12-31T07:39:13.774Z,95
2018-12-31T07:44:41.311Z,95
2018-12-31T07:50:13.776Z,95
2018-12-31T08:01:04.822Z,95
2018-12-31T08:06:31.668Z,95
2018-12-31T08:11:58.563Z,95
2018-12-31T08:17:25.328Z,95
2018-12-31T08:22:52.129Z,95
2018-12-31T08:28:19.956Z,95
2018-12-31T08:33:47.844Z,95
2018-12-31T08:39:14.706Z,95
2018-12-31T08:44:41.564Z,96
2018-12-31T08:50:08.424Z,96
2018-12-31T08:55:35.308Z,96
2018-12-31T09:01:02.211Z,96
2018-12-31T09:06:30.034Z,96
2018-12-31T09:11:57.067Z,96
2018-12-31T09:17:24.756Z,96
2018-12-31T09:22:51.635Z,96
2018-12-31T09:28:19.522Z,96
2018-12-31T09:33:47.486Z,96
2018-12-31T09:39:15.327Z,96
2018-12-31T09:44:42.181Z,96
2018-12-31T09:50:09.106Z,96
2018-12-31T09:55:35.976Z,96
2018-12-31T10:01:03.867Z,96
2018-12-31T10:06:30.847Z,96
2018-12-31T10:11:58.710Z,96
2018-12-31T10:17:25.568Z,96
2018-12-31T10:22:52.491Z,96
2018-12-31T10:28:20.499Z,96
2018-12-31T10:33:47.329Z,96
2018-12-31T10:39:14.252Z,96
2018-12-31T10:44:41.181Z,96
2018-12-31T10:50:08.070Z,96
2018-12-31T10:55:35.049Z,96
2018-12-31T11:01:01.969Z,96
2018-12-31T11:06:29.930Z,97
2018-12-31T11:11:57.803Z,97
2018-12-31T11:17:25.823Z,97
2018-12-31T11:22:53.726Z,97
2018-12-31T11:28:21.739Z,97
2018-12-31T11:33:48.784Z,97
2018-12-31T11:39:16.589Z,97
2018-12-31T11:44:43.512Z,97
2018-12-31T11:50:10.698Z,97
2018-12-31T11:55:37.462Z,97
2018-12-31T12:01:05.493Z,97
2018-12-31T12:06:32.427Z,97
2018-12-31T12:12:00.434Z,97
2018-12-31T12:17:28.339Z,97
2018-12-31T12:22:55.377Z,97
2018-12-31T12:28:22.276Z,97
2018-12-31T12:33:50.252Z,97
2018-12-31T12:39:17.297Z,97
2018-12-31T12:44:44.258Z,97
2018-12-31T12:50:12.250Z,98
2018-12-31T12:55:40.138Z,98
2018-12-31T13:01:07.176Z,98
2018-12-31T13:06:35.169Z,98
2018-12-31T13:12:02.071Z,98
2018-12-31T13:17:29.079Z,98
2018-12-31T13:22:55.980Z,98
2018-12-31T13:28:22.927Z,98
2018-12-31T13:33:49.864Z,98
2018-12-31T13:39:16.993Z,98
2018-12-31T13:44:44.843Z,98
2018-12-31T13:50:12.680Z,98
2018-12-31T13:55:40.680Z,98
2018-12-31T14:01:08.507Z,98
2018-12-31T14:06:36.430Z,98
2018-12-31T14:12:03.401Z,98
2018-12-31T14:17:30.287Z,98
2018-12-31T14:22:58.215Z,98
2018-12-31T14:28:25.104Z,99
2018-12-31T14:33:53.096Z,99
2018-12-31T14:39:20.996Z,99
2018-12-31T14:44:48.011Z,99
2018-12-31T14:50:15.814Z,99
2018-12-31T14:55:42.704Z,99
2018-12-31T15:01:09.605Z,99
2018-12-31T15:06:37.520Z,99
2018-12-31T15:12:04.439Z,99
2018-12-31T15:17:32.431Z,99
2018-12-31T15:22:59.330Z,99
2018-12-31T15:28:27.259Z,99
2018-12-31T15:33:54.137Z,99
2018-12-31T15:39:21.033Z,99
2018-12-31T15:44:47.905Z,99
2018-12-31T15:50:16.985Z,99
2018-12-31T15:55:42.722Z,99
2018-12-31T16:01:09.651Z,99
2018-12-31T16:06:36.515Z,99
2018-12-31T16:12:03.835Z,99
2018-12-31T16:17:31.445Z,99
2018-12-31T16:22:59.229Z,99
2018-12-31T16:28:26.202Z,99
2018-12-31T16:33:54.059Z,99
2018-12-31T16:39:21.991Z,99
2018-12-31T16:44:49.886Z,99
2018-12-31T16:50:16.800Z,99
2018-12-31T16:55:43.708Z,99
2018-12-31T17:01:10.628Z,99
2018-12-31T17:06:37.550Z,99
2018-12-31T17:12:04.501Z,99
2018-12-31T17:17:32.427Z,99
2018-12-31T17:22:59.333Z,99
2018-12-31T17:28:27.575Z,99
2018-12-31T17:33:55.201Z,100
2018-12-31T17:39:22.113Z,99
2018-12-31T17:50:15.968Z,100
2018-12-31T17:55:42.885Z,99
2018-12-31T18:01:10.804Z,99
2018-12-31T18:06:37.835Z,99
2018-12-31T18:12:05.657Z,99
2018-12-31T18:17:32.595Z,99
2018-12-31T18:23:00.578Z,99
2018-12-31T18:28:28.482Z,99
2018-12-31T18:33:55.444Z,99
2018-12-31T18:39:22.414Z,99
2018-12-31T18:44:50.411Z,99
2018-12-31T18:50:17.271Z,99
2018-12-31T18:55:45.214Z,99
2018-12-31T19:01:12.193Z,99
2018-12-31T19:06:40.102Z,99
2018-12-31T19:12:07.009Z,99
2018-12-31T19:17:35.030Z,99
2018-12-31T19:23:01.878Z,99
2018-12-31T19:28:28.818Z,99
2018-12-31T19:33:55.728Z,99
2018-12-31T19:39:22.815Z,99
2018-12-31T19:44:49.584Z,99
2018-12-31T19:50:16.550Z,99
2018-12-31T19:55:43.388Z,100
2018-12-31T20:01:10.313Z,100
2018-12-31T20:06:38.221Z,100
2018-12-31T20:12:06.137Z,100
2018-12-31T20:17:33.048Z,100
2018-12-31T20:23:01.075Z,100
2018-12-31T20:28:28.921Z,100
2018-12-31T20:33:55.863Z,100
2018-12-31T20:39:22.777Z,100
2018-12-31T20:44:50.678Z,100
2018-12-31T20:50:18.592Z,100
2018-12-31T20:55:46.550Z,100
2018-12-31T21:01:14.443Z,99
2018-12-31T21:06:41.437Z,99
2018-12-31T21:12:08.260Z,99
2018-12-31T21:17:36.171Z,99
2018-12-31T21:23:04.136Z,99
2018-12-31T21:28:32.020Z,99
2018-12-31T21:33:59.920Z,99
2018-12-31T21:39:26.886Z,99
2018-12-31T21:44:54.774Z,99
2018-12-31T21:50:22.670Z,99
2018-12-31T21:55:49.590Z,99
2018-12-31T22:01:16.475Z,99
2018-12-31T22:06:43.415Z,99
2018-12-31T22:12:10.393Z,99
2018-12-31T22:17:38.223Z,99
2018-12-31T22:23:05.185Z,99
2018-12-31T22:28:32.062Z,99
2018-12-31T22:33:58.987Z,99
2018-12-31T22:39:26.889Z,99
2018-12-31T22:44:53.800Z,99
2018-12-31T22:50:20.727Z,99
2018-12-31T22:55:48.668Z,99
2018-12-31T23:01:16.621Z,99
2018-12-31T23:06:44.468Z,99
2018-12-31T23:12:11.415Z,99
2018-12-31T23:17:39.342Z,99
2018-12-31T23:23:06.298Z,99
2018-12-31T23:28:34.102Z,99
2018-12-31T23:34:02.031Z,99
2018-12-31T23:39:28.971Z,99
2018-12-31T23:44:55.870Z,99
2018-12-31T23:50:22.779Z,99
2018-12-31T23:55:50.682Z,99
